sim
Sign-in with your pilot id or email,
or register
Callsign
Passwort

Schedule Details

Flight Number: OEO3628
Departure: Bremen Airport (EDDW) at 07:20
Arrival: Adnan Menderes International Airport (LTBJ) at 10:30

Weather Information
Getting current METAR information for EDDW 112050Z 24001KT 9999 FEW033 12/12 Q1026 NOSIG
Getting current METAR information for LTBJ 112050Z 18003KT 160V230 CAVOK 24/21 Q1009 BECMG 36012KT RMK RWY16 24003KT

Schedule Frequency

Route Map